createdAt,value
2023-03-26T00:00:11.993Z,9.03
2023-03-26T00:01:37.712Z,9.05
2023-03-26T00:02:41.069Z,9.05
2023-03-26T00:03:53.569Z,9.07
2023-03-26T00:04:56.478Z,9.08
2023-03-26T00:06:12.855Z,9.08
2023-03-26T00:07:16.102Z,9.09
2023-03-26T00:08:18.936Z,9.09
2023-03-26T00:09:21.915Z,9.09
2023-03-26T00:10:25.532Z,9.09
2023-03-26T00:11:29.620Z,9.08
2023-03-26T00:12:32.504Z,9.08
2023-03-26T00:13:35.799Z,9.07
2023-03-26T00:14:40.862Z,9.07
2023-03-26T00:15:43.610Z,9.08
2023-03-26T00:16:47.453Z,9.08
2023-03-26T00:17:51.702Z,9.09
2023-03-26T00:18:55.357Z,9.10
2023-03-26T00:19:59.677Z,9.11
2023-03-26T00:21:05.453Z,9.12
2023-03-26T00:22:11.227Z,9.12
2023-03-26T00:23:14.439Z,9.12
2023-03-26T00:24:17.438Z,9.13
2023-03-26T00:25:21.457Z,9.14
2023-03-26T00:26:24.599Z,9.15
2023-03-26T00:27:27.789Z,9.17
2023-03-26T00:28:30.854Z,9.17
2023-03-26T00:29:35.719Z,9.18
2023-03-26T00:30:41.810Z,9.17
2023-03-26T00:31:46.592Z,9.17
2023-03-26T00:32:53.652Z,9.18
2023-03-26T00:33:57.884Z,9.19
2023-03-26T00:35:01.931Z,9.19
2023-03-26T00:36:14.742Z,9.19
2023-03-26T00:37:18.393Z,9.20
2023-03-26T00:38:22.615Z,9.20
2023-03-26T00:39:25.461Z,9.21
2023-03-26T00:40:29.893Z,9.21
2023-03-26T00:41:37.177Z,9.22
2023-03-26T00:42:40.401Z,9.22
2023-03-26T00:43:46.732Z,9.22
2023-03-26T00:44:54.991Z,9.22
2023-03-26T00:45:58.044Z,9.21
2023-03-26T00:47:01.539Z,9.22
2023-03-26T00:48:04.976Z,9.21
2023-03-26T00:49:11.199Z,9.20
2023-03-26T00:50:16.301Z,9.21
2023-03-26T00:51:20.829Z,9.20
2023-03-26T00:52:23.944Z,9.20
2023-03-26T00:53:27.001Z,9.18
2023-03-26T00:54:29.914Z,9.18
2023-03-26T00:55:32.800Z,9.16
2023-03-26T00:56:35.900Z,9.15
2023-03-26T00:57:40.318Z,9.15
2023-03-26T00:58:43.797Z,9.15
2023-03-26T00:59:46.724Z,9.14
2023-03-26T01:00:52.448Z,9.14
2023-03-26T01:01:58.495Z,9.13
2023-03-26T01:03:04.352Z,9.12
2023-03-26T01:04:28.194Z,9.11
2023-03-26T01:05:35.060Z,9.12
2023-03-26T01:06:42.363Z,9.12
2023-03-26T01:07:46.217Z,9.13
2023-03-26T01:08:51.130Z,9.14
2023-03-26T01:09:55.299Z,9.14
2023-03-26T01:11:03.124Z,9.14
2023-03-26T01:12:08.724Z,9.16
2023-03-26T01:13:12.901Z,9.17
2023-03-26T01:14:23.608Z,9.18
2023-03-26T01:15:30.145Z,9.19
2023-03-26T01:16:46.615Z,9.20
2023-03-26T01:17:52.106Z,9.22
2023-03-26T01:18:58.796Z,9.22
2023-03-26T01:20:15.139Z,9.22
2023-03-26T01:21:30.515Z,9.23
2023-03-26T01:22:36.650Z,9.23
2023-03-26T01:23:49.111Z,9.23
2023-03-26T01:24:56.637Z,9.25
2023-03-26T01:26:17.595Z,9.25
2023-03-26T01:27:24.685Z,9.26
2023-03-26T01:28:32.353Z,9.25
2023-03-26T01:29:44.675Z,9.26
2023-03-26T01:33:14.116Z,9.26
2023-03-26T01:34:37.364Z,9.26
2023-03-26T01:35:52.899Z,9.25
2023-03-26T01:37:18.795Z,9.26
2023-03-26T01:38:32.832Z,9.27
2023-03-26T01:39:49.597Z,9.27
2023-03-26T01:41:08.308Z,9.27
2023-03-26T01:42:35.392Z,9.28
2023-03-26T01:43:55.399Z,9.28
2023-03-26T01:45:09.437Z,9.28
2023-03-26T01:46:15.466Z,9.27
2023-03-26T01:47:19.388Z,9.26
2023-03-26T01:48:30.681Z,9.25
2023-03-26T01:49:33.750Z,9.24
2023-03-26T01:50:36.764Z,9.24
2023-03-26T01:51:42.100Z,9.24
2023-03-26T01:52:45.122Z,9.24
2023-03-26T01:53:48.398Z,9.23
2023-03-26T01:54:52.487Z,9.22
2023-03-26T01:56:27.017Z,9.21
2023-03-26T01:57:32.457Z,9.19
2023-03-26T01:58:48.593Z,9.17
2023-03-26T02:00:40.115Z,9.16
2023-03-26T02:02:01.398Z,9.14
2023-03-26T02:03:27.966Z,9.14
2023-03-26T02:04:39.766Z,9.12
2023-03-26T02:05:57.979Z,9.09
2023-03-26T02:07:06.193Z,9.07
2023-03-26T02:08:35.777Z,9.06
2023-03-26T02:09:45.913Z,9.05
2023-03-26T02:10:55.484Z,9.04
2023-03-26T02:11:59.608Z,9.02
2023-03-26T02:13:03.277Z,9.01
2023-03-26T02:14:08.380Z,9.00
2023-03-26T02:15:12.321Z,9.00
2023-03-26T02:16:20.233Z,8.99
2023-03-26T02:17:24.509Z,8.98
2023-03-26T02:18:39.020Z,8.99
2023-03-26T02:19:42.379Z,8.97
2023-03-26T02:20:45.385Z,8.97
2023-03-26T02:21:52.535Z,8.97
2023-03-26T02:22:57.785Z,8.97
2023-03-26T02:24:04.518Z,8.97
2023-03-26T02:25:12.308Z,8.97
2023-03-26T02:26:18.208Z,8.96
2023-03-26T02:27:31.840Z,8.97
2023-03-26T02:28:34.889Z,8.97
2023-03-26T02:29:40.439Z,8.97
2023-03-26T02:30:46.010Z,8.97
2023-03-26T02:31:51.426Z,8.97
2023-03-26T02:32:54.659Z,8.99
2023-03-26T02:33:58.853Z,9.00
2023-03-26T02:35:05.473Z,9.00
2023-03-26T02:36:10.759Z,9.00
2023-03-26T02:37:14.095Z,9.01
2023-03-26T02:38:19.628Z,9.01
2023-03-26T02:39:23.464Z,9.01
2023-03-26T02:40:32.980Z,9.01
2023-03-26T02:41:37.431Z,9.00
2023-03-26T02:42:47.547Z,8.99
2023-03-26T02:43:50.590Z,9.00
2023-03-26T02:44:55.430Z,9.00
2023-03-26T02:46:17.298Z,9.01
2023-03-26T02:47:31.403Z,9.01
2023-03-26T02:48:54.723Z,9.02
2023-03-26T02:50:03.802Z,9.03
2023-03-26T02:51:27.577Z,9.05
2023-03-26T02:52:54.228Z,9.05
2023-03-26T02:53:57.112Z,9.06
2023-03-26T02:55:21.126Z,9.06
2023-03-26T02:56:25.527Z,9.07
2023-03-26T02:57:55.373Z,9.07
2023-03-26T02:59:04.879Z,9.08
2023-03-26T03:00:14.417Z,9.09
2023-03-26T03:01:38.378Z,9.07
2023-03-26T03:02:41.476Z,9.07
2023-03-26T03:04:13.712Z,9.07
2023-03-26T03:05:18.526Z,9.08
2023-03-26T03:06:22.622Z,9.09
2023-03-26T03:07:29.643Z,9.10
2023-03-26T03:08:34.094Z,9.10
2023-03-26T03:09:54.877Z,9.10
2023-03-26T03:11:22.232Z,9.11
2023-03-26T03:12:26.180Z,9.10
2023-03-26T03:13:29.995Z,9.12
2023-03-26T03:14:32.968Z,9.12
2023-03-26T03:15:36.106Z,9.13
2023-03-26T03:16:39.005Z,9.13
2023-03-26T03:17:44.534Z,9.14
2023-03-26T03:18:54.655Z,9.15
2023-03-26T03:19:58.278Z,9.14
2023-03-26T03:21:02.919Z,9.14
2023-03-26T03:22:06.394Z,9.14
2023-03-26T03:23:09.945Z,9.15
2023-03-26T03:24:13.984Z,9.15
2023-03-26T03:25:22.259Z,9.16
2023-03-26T03:26:30.049Z,9.16
2023-03-26T03:27:39.337Z,9.17
2023-03-26T03:28:48.261Z,9.19
2023-03-26T03:29:55.975Z,9.17
2023-03-26T03:31:31.206Z,9.19
2023-03-26T03:32:38.660Z,9.20
2023-03-26T03:33:43.108Z,9.21
2023-03-26T03:34:46.488Z,9.22
2023-03-26T03:35:50.631Z,9.22
2023-03-26T03:36:53.904Z,9.23
2023-03-26T03:38:19.849Z,9.22
2023-03-26T03:39:24.697Z,9.23
2023-03-26T03:40:27.750Z,9.24
2023-03-26T03:41:31.309Z,9.24
2023-03-26T03:42:34.996Z,9.26
2023-03-26T03:43:39.077Z,9.26
2023-03-26T03:44:47.601Z,9.26
2023-03-26T03:46:09.311Z,9.26
2023-03-26T03:47:23.961Z,9.27
2023-03-26T03:48:28.042Z,9.29
2023-03-26T03:49:31.045Z,9.31
2023-03-26T03:50:35.808Z,9.32
2023-03-26T03:51:53.209Z,9.32
2023-03-26T03:53:03.024Z,9.33
2023-03-26T03:54:05.964Z,9.33
2023-03-26T03:55:27.760Z,9.33
2023-03-26T03:56:30.879Z,9.33
2023-03-26T03:57:52.653Z,9.36
2023-03-26T03:58:59.609Z,9.37
2023-03-26T04:00:11.809Z,9.38
2023-03-26T04:01:23.605Z,9.39
2023-03-26T04:02:36.251Z,9.40
2023-03-26T04:03:40.861Z,9.41
2023-03-26T04:04:50.404Z,9.42
2023-03-26T04:05:57.128Z,9.42
2023-03-26T04:07:01.168Z,9.43
2023-03-26T04:08:12.274Z,9.43
2023-03-26T04:09:21.456Z,9.44
2023-03-26T04:10:24.501Z,9.44
2023-03-26T04:11:39.583Z,9.46
2023-03-26T04:12:53.941Z,9.46
2023-03-26T04:14:07.236Z,9.47
2023-03-26T04:15:32.031Z,9.47
2023-03-26T04:16:35.278Z,9.47
2023-03-26T04:17:42.674Z,9.49
2023-03-26T04:18:46.422Z,9.50
2023-03-26T04:19:53.163Z,9.52
2023-03-26T04:20:56.675Z,9.54
2023-03-26T04:22:03.104Z,9.54
2023-03-26T04:23:14.232Z,9.56
2023-03-26T04:24:17.147Z,9.57
2023-03-26T04:25:39.415Z,9.58
2023-03-26T04:26:51.681Z,9.59
2023-03-26T04:28:08.588Z,9.59
2023-03-26T04:29:42.924Z,9.60
2023-03-26T04:30:53.794Z,9.61
2023-03-26T04:32:30.472Z,9.64
2023-03-26T04:33:35.101Z,9.66
2023-03-26T04:34:38.812Z,9.68
2023-03-26T04:35:45.504Z,9.70
2023-03-26T04:36:49.228Z,9.71
2023-03-26T04:37:52.957Z,9.73
2023-03-26T04:39:05.114Z,9.74
2023-03-26T04:40:30.553Z,9.73
2023-03-26T04:41:43.425Z,9.72
2023-03-26T04:42:54.849Z,9.73
2023-03-26T04:44:22.522Z,9.72
2023-03-26T04:45:31.232Z,9.71
2023-03-26T04:46:35.193Z,9.72
2023-03-26T04:48:04.295Z,9.73
2023-03-26T04:49:07.358Z,9.73
2023-03-26T04:50:11.333Z,9.75
2023-03-26T04:51:18.293Z,9.76
2023-03-26T04:52:21.538Z,9.78
2023-03-26T04:53:34.541Z,9.80
2023-03-26T04:55:00.096Z,9.82
2023-03-26T04:56:19.611Z,9.84
2023-03-26T04:57:52.015Z,9.86
2023-03-26T04:59:20.161Z,9.89
2023-03-26T05:00:24.858Z,9.91
2023-03-26T05:01:30.817Z,9.93
2023-03-26T05:02:34.201Z,9.96
2023-03-26T05:03:40.681Z,9.97
2023-03-26T05:04:47.729Z,9.99
2023-03-26T05:05:51.653Z,10.01
2023-03-26T05:06:55.222Z,10.02
2023-03-26T05:08:02.712Z,10.04
2023-03-26T05:09:05.746Z,10.05
2023-03-26T05:10:28.635Z,10.07
2023-03-26T05:11:40.242Z,10.09
2023-03-26T05:12:43.466Z,10.10
2023-03-26T05:13:51.152Z,10.12
2023-03-26T05:14:54.743Z,10.13
2023-03-26T05:16:16.667Z,10.13
2023-03-26T05:17:41.658Z,10.13
2023-03-26T05:18:51.651Z,10.13
2023-03-26T05:19:54.795Z,10.14
2023-03-26T05:20:58.424Z,10.14
2023-03-26T05:22:02.536Z,10.14
2023-03-26T05:23:08.018Z,10.14
2023-03-26T05:24:17.019Z,10.15
2023-03-26T05:25:20.756Z,10.16
2023-03-26T05:26:24.127Z,10.19
2023-03-26T05:27:26.966Z,10.20
2023-03-26T05:28:30.856Z,10.22
2023-03-26T05:29:40.989Z,10.23
2023-03-26T05:30:44.590Z,10.25
2023-03-26T05:31:48.717Z,10.27
2023-03-26T05:32:52.287Z,10.28
2023-03-26T05:34:00.484Z,10.30
2023-03-26T05:35:04.464Z,10.32
2023-03-26T05:36:13.373Z,10.33
2023-03-26T05:37:19.995Z,10.33
2023-03-26T05:38:32.839Z,10.33
2023-03-26T05:39:36.183Z,10.34
2023-03-26T05:41:02.611Z,10.34
2023-03-26T05:42:07.958Z,10.34
2023-03-26T05:43:22.073Z,10.34
2023-03-26T05:44:43.361Z,10.35
2023-03-26T05:45:53.048Z,10.35
2023-03-26T05:47:02.663Z,10.34
2023-03-26T05:48:06.134Z,10.35
2023-03-26T05:49:09.035Z,10.35
2023-03-26T05:50:12.117Z,10.35
2023-03-26T05:51:16.960Z,10.36
2023-03-26T05:52:26.837Z,10.36
2023-03-26T05:53:48.351Z,10.35
2023-03-26T05:55:27.827Z,10.36
2023-03-26T05:56:49.407Z,10.37
2023-03-26T05:58:12.260Z,10.37
2023-03-26T05:59:27.128Z,10.37
2023-03-26T06:00:48.916Z,10.38
2023-03-26T06:01:54.615Z,10.38
2023-03-26T06:03:12.981Z,10.38
2023-03-26T06:04:34.675Z,10.39
2023-03-26T06:05:59.432Z,10.41
2023-03-26T06:07:14.066Z,10.42
2023-03-26T06:08:21.969Z,10.43
2023-03-26T06:09:27.077Z,10.44
2023-03-26T06:10:30.454Z,10.43
2023-03-26T06:11:33.802Z,10.44
2023-03-26T06:12:38.833Z,10.43
2023-03-26T06:13:42.644Z,10.43
2023-03-26T06:14:47.157Z,10.43
2023-03-26T06:15:58.474Z,10.44
2023-03-26T06:17:06.239Z,10.45
2023-03-26T06:18:29.098Z,10.46
2023-03-26T06:19:51.084Z,10.48
2023-03-26T06:21:01.275Z,10.51
2023-03-26T06:22:24.611Z,10.55
2023-03-26T06:23:53.996Z,10.59
2023-03-26T06:25:16.205Z,10.64
2023-03-26T06:26:43.461Z,10.69
2023-03-26T06:28:01.846Z,10.74
2023-03-26T06:29:37.118Z,10.77
2023-03-26T06:30:54.913Z,10.81
2023-03-26T06:32:19.152Z,10.83
2023-03-26T06:33:34.198Z,10.84
2023-03-26T06:34:37.218Z,10.87
2023-03-26T06:35:40.489Z,10.90
2023-03-26T06:36:43.424Z,10.93
2023-03-26T06:37:46.586Z,10.96
2023-03-26T06:38:49.468Z,10.99
2023-03-26T06:39:52.557Z,11.01
2023-03-26T06:41:04.820Z,11.02
2023-03-26T06:42:19.774Z,11.02
2023-03-26T06:43:45.576Z,11.03
2023-03-26T06:45:09.047Z,11.05
2023-03-26T06:47:02.031Z,11.06
2023-03-26T06:48:23.430Z,11.07
2023-03-26T06:49:49.676Z,11.06
2023-03-26T06:51:13.041Z,11.05
2023-03-26T06:52:34.619Z,11.05
2023-03-26T06:53:45.695Z,11.08
2023-03-26T06:55:10.264Z,11.10
2023-03-26T06:56:33.639Z,11.14
2023-03-26T06:57:58.324Z,11.15
2023-03-26T06:59:16.566Z,11.18
2023-03-26T07:00:48.977Z,11.18
2023-03-26T07:02:11.816Z,11.17
2023-03-26T07:03:33.675Z,11.16
2023-03-26T07:04:56.214Z,11.13
2023-03-26T07:06:18.069Z,11.12
2023-03-26T07:07:45.846Z,11.10
2023-03-26T07:09:12.747Z,11.08
2023-03-26T07:10:45.590Z,11.07
2023-03-26T07:11:59.856Z,11.08
2023-03-26T07:13:21.995Z,11.09
2023-03-26T07:14:47.908Z,11.08
2023-03-26T07:16:11.483Z,11.07
2023-03-26T07:17:32.912Z,11.06
2023-03-26T07:18:51.216Z,11.06
2023-03-26T07:19:58.237Z,11.05
2023-03-26T07:21:02.749Z,11.03
2023-03-26T07:22:07.726Z,11.02
2023-03-26T07:23:30.971Z,11.01
2023-03-26T07:24:44.264Z,11.02
2023-03-26T07:26:28.752Z,11.03
2023-03-26T07:28:06.557Z,11.04
2023-03-26T07:29:48.801Z,11.06
2023-03-26T07:31:12.301Z,11.10
2023-03-26T07:32:39.653Z,11.16
2023-03-26T07:34:26.627Z,11.21
2023-03-26T07:35:59.947Z,11.27
2023-03-26T07:37:30.182Z,11.33
2023-03-26T07:39:07.931Z,11.39
2023-03-26T07:40:40.460Z,11.45
2023-03-26T07:42:09.441Z,11.51
2023-03-26T07:44:00.163Z,11.53
2023-03-26T07:45:47.482Z,11.55
2023-03-26T07:47:18.306Z,11.59
2023-03-26T07:48:43.621Z,11.64
2023-03-26T07:49:53.743Z,11.69
2023-03-26T07:51:15.849Z,11.73
2023-03-26T07:52:58.205Z,11.76
2023-03-26T07:54:24.586Z,11.76
2023-03-26T07:56:07.822Z,11.78
2023-03-26T07:57:58.785Z,11.80
2023-03-26T07:59:45.628Z,11.78
2023-03-26T08:01:43.019Z,11.77
2023-03-26T08:03:03.660Z,11.77
2023-03-26T08:05:32.181Z,11.79
2023-03-26T08:07:03.729Z,11.80
2023-03-26T08:09:00.114Z,11.80
2023-03-26T08:10:29.724Z,11.78
2023-03-26T08:11:50.637Z,11.76
2023-03-26T08:13:06.702Z,11.73
2023-03-26T08:14:28.604Z,11.71
2023-03-26T08:15:38.072Z,11.68
2023-03-26T08:17:04.892Z,11.67
2023-03-26T08:18:30.476Z,11.68
2023-03-26T08:19:41.356Z,11.71
2023-03-26T08:20:54.425Z,11.76
2023-03-26T08:22:13.174Z,11.81
2023-03-26T08:23:50.400Z,11.82
2023-03-26T08:25:28.355Z,11.82
2023-03-26T08:26:45.506Z,11.83
2023-03-26T08:28:30.178Z,11.83
2023-03-26T08:29:51.880Z,11.82
2023-03-26T08:30:55.305Z,11.86
2023-03-26T08:32:01.813Z,11.89
2023-03-26T08:33:16.767Z,11.92
2023-03-26T08:34:20.033Z,11.96
2023-03-26T08:35:24.702Z,12.00
2023-03-26T08:36:27.879Z,12.03
2023-03-26T08:37:31.174Z,12.07
2023-03-26T08:38:34.347Z,12.10
2023-03-26T08:39:39.561Z,12.11
2023-03-26T08:41:17.086Z,12.16
2023-03-26T08:42:20.370Z,12.23
2023-03-26T08:44:17.456Z,12.29
2023-03-26T08:45:44.854Z,12.42
2023-03-26T08:47:12.673Z,12.51
2023-03-26T08:48:43.984Z,12.59
2023-03-26T08:50:09.265Z,12.62
2023-03-26T08:51:22.070Z,12.63
2023-03-26T08:52:50.922Z,12.64
2023-03-26T08:53:56.499Z,12.65
2023-03-26T08:55:08.694Z,12.65
2023-03-26T08:56:30.318Z,12.66
2023-03-26T08:57:57.095Z,12.65
2023-03-26T08:59:42.959Z,12.63
2023-03-26T09:01:01.485Z,12.60
2023-03-26T09:02:46.873Z,12.57
2023-03-26T09:04:29.779Z,12.54
2023-03-26T09:05:54.822Z,12.51
2023-03-26T09:07:07.769Z,12.51
2023-03-26T09:08:25.904Z,12.49
2023-03-26T09:09:47.573Z,12.45
2023-03-26T09:11:09.554Z,12.41
2023-03-26T09:12:15.797Z,12.40
2023-03-26T09:13:18.624Z,12.40
2023-03-26T09:14:51.037Z,12.41
2023-03-26T09:16:45.338Z,12.42
2023-03-26T09:18:22.297Z,12.45
2023-03-26T09:19:54.109Z,12.50
2023-03-26T09:21:46.129Z,12.55
2023-03-26T09:23:26.929Z,12.64
2023-03-26T09:24:54.651Z,12.72
2023-03-26T09:26:17.290Z,12.77
2023-03-26T09:27:36.674Z,12.82
2023-03-26T09:29:21.519Z,12.86
2023-03-26T09:30:47.275Z,12.92
2023-03-26T09:32:11.721Z,12.97
2023-03-26T09:33:20.871Z,13.03
2023-03-26T09:34:45.716Z,13.09
2023-03-26T09:36:09.536Z,13.16
2023-03-26T09:37:57.586Z,13.23
2023-03-26T09:39:16.529Z,13.28
2023-03-26T09:40:24.650Z,13.26
2023-03-26T09:41:43.142Z,13.24
2023-03-26T09:42:53.986Z,13.21
2023-03-26T09:44:24.729Z,13.20
2023-03-26T09:45:46.322Z,13.21
2023-03-26T09:47:01.189Z,13.18
2023-03-26T09:48:20.110Z,13.22
2023-03-26T09:50:00.618Z,13.29
2023-03-26T09:51:22.393Z,13.36
2023-03-26T09:53:03.009Z,13.36
2023-03-26T09:54:13.967Z,13.36
2023-03-26T09:55:45.253Z,13.35
2023-03-26T09:57:04.965Z,13.32
2023-03-26T09:58:19.951Z,13.29
2023-03-26T09:59:58.097Z,13.26
2023-03-26T10:01:25.862Z,13.23
2023-03-26T10:02:48.142Z,13.18
2023-03-26T10:04:15.732Z,13.17
2023-03-26T10:05:42.616Z,13.14
2023-03-26T10:07:12.441Z,13.10
2023-03-26T10:08:47.626Z,13.06
2023-03-26T10:10:15.477Z,13.04
2023-03-26T10:11:37.851Z,13.01
2023-03-26T10:12:51.094Z,12.99
2023-03-26T10:13:59.582Z,12.95
2023-03-26T10:15:23.995Z,12.89
2023-03-26T10:16:59.676Z,12.82
2023-03-26T10:18:37.269Z,12.75
2023-03-26T10:20:04.563Z,12.65
2023-03-26T10:21:32.337Z,12.57
2023-03-26T10:22:59.250Z,12.48
2023-03-26T10:25:01.452Z,12.40
2023-03-26T10:26:22.463Z,12.31
2023-03-26T10:27:44.333Z,12.27
2023-03-26T10:29:16.226Z,12.27
2023-03-26T10:30:35.367Z,12.25
2023-03-26T10:32:01.497Z,12.24
2023-03-26T10:33:19.574Z,12.21
2023-03-26T10:34:54.538Z,12.18
2023-03-26T10:36:29.433Z,12.19
2023-03-26T10:38:04.387Z,12.23
2023-03-26T10:39:38.934Z,12.27
2023-03-26T10:40:55.417Z,12.37
2023-03-26T10:42:26.638Z,12.48
2023-03-26T10:44:15.816Z,12.58
2023-03-26T10:45:53.182Z,12.65
2023-03-26T10:47:35.439Z,12.74
2023-03-26T10:48:47.721Z,12.84
2023-03-26T10:50:22.680Z,12.93
2023-03-26T10:51:51.531Z,12.97
2023-03-26T10:53:20.704Z,12.99
2023-03-26T10:54:36.261Z,13.08
2023-03-26T10:55:46.945Z,13.15
2023-03-26T10:56:52.410Z,13.25
2023-03-26T10:58:13.379Z,13.36
2023-03-26T10:59:19.138Z,13.47
2023-03-26T11:00:29.260Z,13.56
2023-03-26T11:01:42.173Z,13.66
2023-03-26T11:03:00.844Z,13.71
2023-03-26T11:04:42.704Z,13.73
2023-03-26T11:05:48.648Z,13.74
2023-03-26T11:07:09.047Z,13.72
2023-03-26T11:08:21.345Z,13.73
2023-03-26T11:09:51.563Z,13.73
2023-03-26T11:10:55.898Z,13.70
2023-03-26T11:12:27.034Z,13.67
2023-03-26T11:13:54.010Z,13.61
2023-03-26T11:15:17.944Z,13.50
2023-03-26T11:16:36.397Z,13.42
2023-03-26T11:17:51.659Z,13.37
2023-03-26T11:19:05.163Z,13.33
2023-03-26T11:20:11.499Z,13.29
2023-03-26T11:21:29.354Z,13.24
2023-03-26T11:23:04.911Z,13.21
2023-03-26T11:24:42.191Z,13.15
2023-03-26T11:26:02.176Z,13.08
2023-03-26T11:27:15.702Z,13.02
2023-03-26T11:28:28.577Z,12.99
2023-03-26T11:29:49.372Z,12.94
2023-03-26T11:31:08.716Z,12.89
2023-03-26T11:32:15.581Z,12.87
2023-03-26T11:33:45.707Z,12.88
2023-03-26T11:35:08.212Z,12.87
2023-03-26T11:36:16.682Z,12.89
2023-03-26T11:37:46.481Z,12.93
2023-03-26T11:38:57.904Z,13.00
2023-03-26T11:40:14.789Z,13.07
2023-03-26T11:41:24.138Z,13.14
2023-03-26T11:42:30.498Z,13.21
2023-03-26T11:43:36.846Z,13.25
2023-03-26T11:45:05.250Z,13.35
2023-03-26T11:46:14.234Z,13.50
2023-03-26T11:47:23.486Z,13.65
2023-03-26T11:48:33.106Z,13.80
2023-03-26T11:49:37.321Z,13.99
2023-03-26T11:50:46.509Z,14.21
2023-03-26T11:51:49.713Z,14.47
2023-03-26T11:52:57.373Z,14.71
2023-03-26T11:54:04.942Z,14.92
2023-03-26T11:55:12.665Z,15.11
2023-03-26T11:56:32.691Z,15.30
2023-03-26T11:57:38.386Z,15.53
2023-03-26T11:59:13.425Z,15.72
2023-03-26T12:00:21.112Z,16.02
2023-03-26T12:01:58.550Z,16.25
2023-03-26T12:03:01.625Z,16.49
2023-03-26T12:04:14.585Z,16.56
2023-03-26T12:05:26.431Z,16.57
2023-03-26T12:06:29.674Z,16.51
2023-03-26T12:07:34.409Z,16.39
2023-03-26T12:08:42.252Z,16.24
2023-03-26T12:09:51.167Z,16.06
2023-03-26T12:11:04.472Z,15.87
2023-03-26T12:12:07.446Z,15.66
2023-03-26T12:13:36.966Z,15.48
2023-03-26T12:14:42.900Z,15.24
2023-03-26T12:15:45.864Z,15.15
2023-03-26T12:17:01.281Z,15.17
2023-03-26T12:18:28.463Z,15.32
2023-03-26T12:19:39.542Z,15.51
2023-03-26T12:20:42.731Z,15.53
2023-03-26T12:21:51.321Z,15.49
2023-03-26T12:22:59.514Z,15.42
2023-03-26T12:24:06.227Z,15.34
2023-03-26T12:25:17.698Z,15.28
2023-03-26T12:26:35.084Z,15.23
2023-03-26T12:27:38.014Z,15.15
2023-03-26T12:28:46.052Z,15.10
2023-03-26T12:29:55.086Z,15.09
2023-03-26T12:31:02.887Z,15.11
2023-03-26T12:32:15.412Z,15.11
2023-03-26T12:33:30.246Z,15.07
2023-03-26T12:34:36.794Z,15.04
2023-03-26T12:35:40.881Z,15.02
2023-03-26T12:36:53.523Z,15.08
2023-03-26T12:38:13.388Z,15.23
2023-03-26T12:40:09.299Z,15.57
2023-03-26T12:41:08.001Z,16.04
2023-03-26T12:44:51.385Z,16.42
2023-03-26T12:44:52.618Z,16.84
2023-03-26T12:45:44.473Z,16.88
2023-03-26T12:48:00.391Z,16.76
2023-03-26T12:48:18.608Z,16.44
2023-03-26T12:49:22.730Z,16.13
2023-03-26T12:50:36.410Z,15.88
2023-03-26T12:51:49.623Z,15.59
2023-03-26T12:53:19.237Z,15.24
2023-03-26T12:55:00.358Z,14.78
2023-03-26T12:56:06.045Z,14.28
2023-03-26T12:57:25.268Z,14.04
2023-03-26T12:58:54.962Z,13.78
2023-03-26T13:00:25.446Z,13.66
2023-03-26T13:01:40.778Z,13.68
2023-03-26T13:02:53.091Z,13.67
2023-03-26T13:04:18.401Z,13.65
2023-03-26T13:06:03.336Z,13.64
2023-03-26T13:07:47.231Z,13.64
2023-03-26T13:08:52.748Z,13.75
2023-03-26T13:10:22.862Z,13.88
2023-03-26T13:11:55.562Z,14.02
2023-03-26T13:13:23.457Z,14.14
2023-03-26T13:15:00.921Z,14.18
2023-03-26T13:16:09.376Z,14.17
2023-03-26T13:17:30.037Z,14.11
2023-03-26T13:18:51.951Z,14.01
2023-03-26T13:20:29.868Z,13.86
2023-03-26T13:21:55.187Z,13.56
2023-03-26T13:23:20.967Z,13.25
2023-03-26T13:24:32.992Z,12.96
2023-03-26T13:26:00.557Z,12.83
2023-03-26T13:27:28.377Z,13.02
2023-03-26T13:28:33.262Z,13.52
2023-03-26T13:30:13.341Z,14.01
2023-03-26T13:31:27.887Z,14.60
2023-03-26T13:32:34.009Z,14.97
2023-03-26T13:34:16.219Z,15.32
2023-03-26T13:35:45.883Z,15.75
2023-03-26T13:36:51.879Z,16.11
2023-03-26T13:38:11.699Z,16.31
2023-03-26T13:39:21.220Z,16.44
2023-03-26T13:40:33.665Z,16.41
2023-03-26T13:41:59.631Z,16.25
2023-03-26T13:43:36.869Z,15.90
2023-03-26T13:45:05.506Z,15.50
2023-03-26T13:46:18.391Z,15.02
2023-03-26T13:47:29.132Z,14.71
2023-03-26T13:48:43.382Z,14.44
2023-03-26T13:50:01.966Z,14.16
2023-03-26T13:51:42.244Z,13.91
2023-03-26T13:52:52.258Z,13.64
2023-03-26T13:53:55.221Z,13.44
2023-03-26T13:55:04.428Z,13.25
2023-03-26T13:56:13.668Z,13.07
2023-03-26T13:57:41.635Z,12.88
2023-03-26T13:58:50.627Z,12.69
2023-03-26T13:59:59.172Z,12.53
2023-03-26T14:01:17.056Z,12.42
2023-03-26T14:02:47.891Z,12.33
2023-03-26T14:04:01.038Z,12.61
2023-03-26T14:05:21.252Z,12.88
2023-03-26T14:06:47.411Z,13.19
2023-03-26T14:08:22.853Z,13.66
2023-03-26T14:09:42.616Z,14.31
2023-03-26T14:10:56.804Z,14.76
2023-03-26T14:12:24.827Z,15.17
2023-03-26T14:13:43.637Z,15.52
2023-03-26T14:14:53.139Z,15.77
2023-03-26T14:16:11.811Z,16.00
2023-03-26T14:17:20.759Z,16.30
2023-03-26T14:18:38.263Z,16.63
2023-03-26T14:20:10.312Z,16.95
2023-03-26T14:21:42.778Z,17.16
2023-03-26T14:23:22.021Z,17.27
2023-03-26T14:24:44.194Z,17.66
2023-03-26T14:25:56.194Z,17.72
2023-03-26T14:27:37.411Z,17.80
2023-03-26T14:29:56.365Z,17.85
2023-03-26T14:31:19.556Z,17.95
2023-03-26T14:32:49.366Z,18.10
2023-03-26T14:34:34.524Z,18.15
2023-03-26T14:36:14.460Z,17.96
2023-03-26T14:37:33.163Z,17.57
2023-03-26T14:39:13.619Z,17.26
2023-03-26T14:40:39.703Z,16.81
2023-03-26T14:41:53.318Z,16.42
2023-03-26T14:43:23.306Z,16.11
2023-03-26T14:45:07.398Z,15.78
2023-03-26T14:46:21.563Z,15.32
2023-03-26T14:47:25.139Z,15.02
2023-03-26T14:48:37.173Z,14.79
2023-03-26T14:50:22.623Z,14.58
2023-03-26T14:51:47.751Z,14.28
2023-03-26T14:52:52.941Z,14.00
2023-03-26T14:54:19.192Z,13.78
2023-03-26T14:55:48.629Z,13.56
2023-03-26T14:57:00.984Z,13.32
2023-03-26T14:58:47.816Z,13.11
2023-03-26T14:59:51.109Z,12.88
2023-03-26T15:01:19.220Z,12.75
2023-03-26T15:02:22.294Z,12.56
2023-03-26T15:03:51.174Z,12.47
2023-03-26T15:04:53.970Z,12.31
2023-03-26T15:06:18.193Z,12.23
2023-03-26T15:07:45.849Z,12.10
2023-03-26T15:09:17.934Z,11.93
2023-03-26T15:10:25.917Z,11.76
2023-03-26T15:11:53.566Z,11.66
2023-03-26T15:13:34.048Z,11.52
2023-03-26T15:14:56.445Z,11.42
2023-03-26T15:16:13.437Z,11.34
2023-03-26T15:17:41.660Z,11.22
2023-03-26T15:18:57.292Z,11.09
2023-03-26T15:20:37.680Z,10.98
2023-03-26T15:21:57.201Z,10.86
2023-03-26T15:23:33.713Z,10.78
2023-03-26T15:24:55.901Z,10.68
2023-03-26T15:26:20.604Z,10.60
2023-03-26T15:27:37.930Z,10.52
2023-03-26T15:29:09.772Z,10.48
2023-03-26T15:30:42.668Z,10.42
2023-03-26T15:31:51.410Z,10.37
2023-03-26T15:33:05.472Z,10.32
2023-03-26T15:34:33.787Z,10.26
2023-03-26T15:36:11.345Z,10.18
2023-03-26T15:37:34.212Z,10.13
2023-03-26T15:39:11.888Z,10.07
2023-03-26T15:40:17.650Z,9.99
2023-03-26T15:41:34.732Z,9.94
2023-03-26T15:42:46.967Z,9.88
2023-03-26T15:44:23.618Z,9.87
2023-03-26T15:45:30.078Z,10.00
2023-03-26T15:46:38.790Z,10.16
2023-03-26T15:47:57.371Z,10.31
2023-03-26T15:49:16.572Z,10.47
2023-03-26T15:51:04.694Z,10.61
2023-03-26T15:52:21.242Z,10.74
2023-03-26T15:53:29.352Z,10.73
2023-03-26T15:55:00.014Z,10.66
2023-03-26T15:56:08.957Z,10.52
2023-03-26T15:57:36.908Z,10.40
2023-03-26T15:58:50.111Z,10.34
2023-03-26T16:00:15.536Z,10.25
2023-03-26T16:01:51.645Z,10.10
2023-03-26T16:03:10.157Z,9.93
2023-03-26T16:04:16.088Z,9.80
2023-03-26T16:05:21.878Z,9.71
2023-03-26T16:06:56.264Z,9.60
2023-03-26T16:08:14.931Z,9.46
2023-03-26T16:09:33.094Z,9.33
2023-03-26T16:10:51.534Z,9.21
2023-03-26T16:11:59.714Z,9.08
2023-03-26T16:13:36.757Z,8.99
2023-03-26T16:14:46.860Z,8.93
2023-03-26T16:15:56.348Z,9.00
2023-03-26T16:17:00.077Z,9.12
2023-03-26T16:18:06.252Z,9.21
2023-03-26T16:19:24.193Z,9.30
2023-03-26T16:20:34.457Z,9.38
2023-03-26T16:21:53.885Z,9.45
2023-03-26T16:23:01.646Z,9.50
2023-03-26T16:24:08.158Z,9.53
2023-03-26T16:25:27.775Z,9.55
2023-03-26T16:26:31.732Z,9.54
2023-03-26T16:27:35.445Z,9.42
2023-03-26T16:28:44.553Z,9.26
2023-03-26T16:30:09.705Z,9.07
2023-03-26T16:31:37.301Z,8.84
2023-03-26T16:32:48.252Z,8.63
2023-03-26T16:34:18.638Z,8.48
2023-03-26T16:35:46.562Z,8.31
2023-03-26T16:36:51.671Z,8.16
2023-03-26T16:38:16.112Z,8.06
2023-03-26T16:39:38.981Z,7.92
2023-03-26T16:41:02.347Z,7.81
2023-03-26T16:42:38.655Z,7.71
2023-03-26T16:43:55.353Z,7.60